UAE129 WADD-OMDB
Flight info
| Callsign | UAE129 |
|---|---|
| Flight time | N/A |
| Altitude | 36000 |
| Route | BORGI DCT UDONO M635 JUNHA DCT IRTAD A464 SJ G579 VJB Y342 AROSO Y513 KALIL Y504 BILIK G582 PUGER R461 ISVUR N563 SADRI/N0495F380 N563 KATBI/N0490F400 N563 REXOD M762 MIVEK P574 IMPED |
| Aircraft | A388/J-SADE2E3FGHIJ3J4J5M1RWXY/LB1D1 |
Departure
| Time | N/A |
|---|---|
| Airport | Denpasar I Gusti Ngurah Rai International Airport (WADD) |
Arrival
| Time | 2026-04-20 15:20 |
|---|---|
| Airport | Dubai International Airport (OMDB) |
| Time | Latitude | Longitude | Altitude | Speed | Heading |
|---|---|---|---|---|---|
| 2026-04-20 10:14 | 7.99123 | 88.67484 | 35833 ft | 503 kts | 294° |
| 2026-04-20 10:14 | 8.00584 | 88.64272 | 35838 ft | 503 kts | 294° |
| 2026-04-20 10:15 | 8.03499 | 88.57857 | 35841 ft | 504 kts | 294° |
| 2026-04-20 10:15 | 8.06422 | 88.51424 | 35845 ft | 504 kts | 293° |
| 2026-04-20 10:16 | 8.09317 | 88.45045 | 35846 ft | 504 kts | 293° |
| 2026-04-20 10:16 | 8.12238 | 88.38609 | 35838 ft | 504 kts | 293° |
| 2026-04-20 10:17 | 8.15154 | 88.32180 | 35836 ft | 504 kts | 293° |
| 2026-04-20 10:17 | 8.18070 | 88.25749 | 35833 ft | 504 kts | 293° |
| 2026-04-20 10:18 | 8.20962 | 88.19366 | 35831 ft | 503 kts | 293° |
| 2026-04-20 10:18 | 8.23872 | 88.12941 | 35835 ft | 503 kts | 293° |
| 2026-04-20 10:19 | 8.26781 | 88.06515 | 35832 ft | 503 kts | 293° |
| 2026-04-20 10:19 | 8.29688 | 88.00089 | 35831 ft | 503 kts | 293° |
| 2026-04-20 10:20 | 8.32569 | 87.93718 | 35833 ft | 503 kts | 293° |
| 2026-04-20 10:20 | 8.35476 | 87.87287 | 35832 ft | 503 kts | 293° |
| 2026-04-20 10:21 | 8.38380 | 87.80860 | 35836 ft | 503 kts | 293° |
| 2026-04-20 10:21 | 8.41280 | 87.74438 | 35836 ft | 503 kts | 293° |
| 2026-04-20 10:22 | 8.44175 | 87.68021 | 35841 ft | 502 kts | 293° |
| 2026-04-20 10:22 | 8.47054 | 87.61639 | 35836 ft | 502 kts | 293° |
| 2026-04-20 10:23 | 8.49949 | 87.55218 | 35836 ft | 502 kts | 293° |
| 2026-04-20 10:23 | 8.52351 | 87.49888 | 35836 ft | 501 kts | 293° |
| 2026-04-20 10:24 | 8.55706 | 87.42440 | 35831 ft | 501 kts | 293° |
| 2026-04-20 10:24 | 8.58589 | 87.36034 | 35831 ft | 501 kts | 293° |
| 2026-04-20 10:25 | 8.61472 | 87.29627 | 35830 ft | 501 kts | 293° |
| 2026-04-20 10:25 | 8.64351 | 87.23224 | 35832 ft | 501 kts | 293° |
| 2026-04-20 10:26 | 8.67230 | 87.16818 | 35830 ft | 501 kts | 293° |
| 2026-04-20 10:26 | 8.69621 | 87.11496 | 35832 ft | 501 kts | 293° |
| 2026-04-20 10:27 | 8.72481 | 87.05127 | 35834 ft | 501 kts | 293° |
| 2026-04-20 10:27 | 8.75358 | 86.98717 | 35833 ft | 501 kts | 293° |
| 2026-04-20 10:28 | 8.78232 | 86.92310 | 35831 ft | 501 kts | 293° |
| 2026-04-20 10:28 | 8.81107 | 86.85896 | 35831 ft | 500 kts | 293° |
| 2026-04-20 10:29 | 8.83957 | 86.79536 | 35834 ft | 500 kts | 293° |
| 2026-04-20 10:29 | 8.86831 | 86.73118 | 35828 ft | 500 kts | 293° |
| 2026-04-20 10:30 | 8.89698 | 86.66712 | 35824 ft | 500 kts | 293° |
| 2026-04-20 10:30 | 8.92566 | 86.60302 | 35832 ft | 500 kts | 293° |
| 2026-04-20 10:31 | 8.95431 | 86.53895 | 35830 ft | 500 kts | 293° |
| 2026-04-20 10:31 | 8.98276 | 86.47529 | 35828 ft | 500 kts | 293° |
| 2026-04-20 10:32 | 9.01135 | 86.41125 | 35825 ft | 500 kts | 293° |
| 2026-04-20 10:32 | 9.03968 | 86.34780 | 35823 ft | 500 kts | 293° |
| 2026-04-20 10:33 | 9.06804 | 86.28422 | 35827 ft | 500 kts | 293° |
| 2026-04-20 10:33 | 9.09664 | 86.22009 | 35824 ft | 500 kts | 293° |
| 2026-04-20 10:34 | 9.12524 | 86.15594 | 35831 ft | 500 kts | 293° |
| 2026-04-20 10:35 | 9.16801 | 86.05988 | 35826 ft | 499 kts | 292° |
| 2026-04-20 10:35 | 9.19634 | 85.99622 | 35826 ft | 499 kts | 292° |
| 2026-04-20 10:36 | 9.22485 | 85.93215 | 35828 ft | 499 kts | 292° |
| 2026-04-20 10:36 | 9.25335 | 85.86805 | 35825 ft | 499 kts | 292° |
| 2026-04-20 10:37 | 9.28269 | 85.80426 | 35823 ft | 500 kts | 294° |
| 2026-04-20 10:37 | 9.31227 | 85.74100 | 35824 ft | 500 kts | 293° |
| 2026-04-20 10:38 | 9.34189 | 85.67729 | 35827 ft | 501 kts | 293° |
| 2026-04-20 10:38 | 9.37149 | 85.61343 | 35832 ft | 501 kts | 293° |
| 2026-04-20 10:39 | 9.40105 | 85.54960 | 35831 ft | 501 kts | 293° |
| 2026-04-20 10:39 | 9.43035 | 85.48628 | 35831 ft | 501 kts | 293° |
| 2026-04-20 10:40 | 9.45993 | 85.42234 | 35829 ft | 501 kts | 293° |
| 2026-04-20 10:40 | 9.48945 | 85.35850 | 35831 ft | 500 kts | 293° |
| 2026-04-20 10:41 | 9.51897 | 85.29462 | 35830 ft | 500 kts | 293° |
| 2026-04-20 10:41 | 9.54841 | 85.23085 | 35827 ft | 500 kts | 293° |
| 2026-04-20 10:42 | 9.57767 | 85.16746 | 35827 ft | 500 kts | 293° |
| 2026-04-20 10:42 | 9.60709 | 85.10368 | 35826 ft | 499 kts | 293° |
| 2026-04-20 10:43 | 9.63647 | 85.03997 | 35826 ft | 499 kts | 293° |
| 2026-04-20 10:43 | 9.66580 | 84.97630 | 35823 ft | 499 kts | 293° |
| 2026-04-20 10:44 | 9.69498 | 84.91293 | 35826 ft | 499 kts | 293° |
| 2026-04-20 10:44 | 9.72432 | 84.84919 | 35824 ft | 499 kts | 293° |
| 2026-04-20 10:45 | 9.75364 | 84.78545 | 35825 ft | 499 kts | 293° |
| 2026-04-20 10:45 | 9.78296 | 84.72165 | 35827 ft | 499 kts | 293° |
| 2026-04-20 10:46 | 9.81205 | 84.65834 | 35826 ft | 499 kts | 293° |
| 2026-04-20 10:46 | 9.84130 | 84.59465 | 35836 ft | 498 kts | 293° |
| 2026-04-20 10:47 | 9.87057 | 84.53086 | 35827 ft | 498 kts | 293° |
| 2026-04-20 10:47 | 9.89974 | 84.46726 | 35823 ft | 498 kts | 293° |
| 2026-04-20 10:48 | 9.92876 | 84.40395 | 35829 ft | 498 kts | 293° |
| 2026-04-20 10:48 | 9.95792 | 84.34029 | 35824 ft | 498 kts | 293° |
| 2026-04-20 10:49 | 9.98707 | 84.27661 | 35828 ft | 497 kts | 293° |
| 2026-04-20 10:49 | 10.01619 | 84.21297 | 35823 ft | 497 kts | 293° |
| 2026-04-20 10:50 | 10.04524 | 84.14946 | 35827 ft | 497 kts | 292° |
| 2026-04-20 10:50 | 10.07411 | 84.08628 | 35824 ft | 497 kts | 292° |
| 2026-04-20 10:51 | 10.10315 | 84.02269 | 35826 ft | 496 kts | 292° |
| 2026-04-20 10:51 | 10.13219 | 83.95906 | 35825 ft | 496 kts | 292° |
| 2026-04-20 10:52 | 10.16120 | 83.89547 | 35823 ft | 496 kts | 292° |
| 2026-04-20 10:52 | 10.18994 | 83.83245 | 35824 ft | 496 kts | 292° |
| 2026-04-20 10:53 | 10.21893 | 83.76881 | 35823 ft | 496 kts | 292° |
| 2026-04-20 10:53 | 10.24786 | 83.70529 | 35830 ft | 496 kts | 292° |
| 2026-04-20 10:54 | 10.27676 | 83.64178 | 35825 ft | 496 kts | 292° |
| 2026-04-20 10:54 | 10.30546 | 83.57868 | 35822 ft | 496 kts | 292° |
| 2026-04-20 10:55 | 10.33438 | 83.51505 | 35822 ft | 496 kts | 292° |
| 2026-04-20 10:55 | 10.36324 | 83.45151 | 35821 ft | 496 kts | 292° |
| 2026-04-20 10:56 | 10.39217 | 83.38779 | 35820 ft | 496 kts | 292° |
| 2026-04-20 10:56 | 10.42084 | 83.32459 | 35822 ft | 496 kts | 292° |
| 2026-04-20 10:57 | 10.44967 | 83.26100 | 35820 ft | 496 kts | 292° |
| 2026-04-20 10:57 | 10.47856 | 83.19725 | 35824 ft | 496 kts | 292° |
| 2026-04-20 10:58 | 10.50743 | 83.13350 | 35823 ft | 496 kts | 292° |
| 2026-04-20 10:58 | 10.53604 | 83.07028 | 35825 ft | 496 kts | 292° |
| 2026-04-20 10:59 | 10.56483 | 83.00663 | 35822 ft | 496 kts | 292° |
| 2026-04-20 10:59 | 10.59362 | 82.94295 | 35820 ft | 495 kts | 292° |
| 2026-04-20 11:00 | 10.62239 | 82.87928 | 35814 ft | 495 kts | 292° |
| 2026-04-20 11:00 | 10.65114 | 82.81570 | 35820 ft | 495 kts | 292° |
| 2026-04-20 11:01 | 10.67974 | 82.75267 | 35816 ft | 495 kts | 292° |
| 2026-04-20 11:01 | 10.70860 | 82.68909 | 35809 ft | 495 kts | 292° |
| 2026-04-20 11:02 | 10.73742 | 82.62552 | 35814 ft | 495 kts | 292° |
| 2026-04-20 11:02 | 10.76625 | 82.56184 | 35807 ft | 496 kts | 292° |
| 2026-04-20 11:03 | 10.79486 | 82.49862 | 35811 ft | 496 kts | 292° |
| 2026-04-20 11:03 | 10.82373 | 82.43481 | 35817 ft | 496 kts | 292° |
| 2026-04-20 11:04 | 10.85253 | 82.37107 | 35816 ft | 497 kts | 292° |
| 2026-04-20 11:04 | 10.88140 | 82.30716 | 35816 ft | 497 kts | 291° |
| 2026-04-20 11:05 | 10.91022 | 82.24334 | 35815 ft | 497 kts | 291° |
| 2026-04-20 11:05 | 10.93887 | 82.17982 | 35815 ft | 497 kts | 291° |
| 2026-04-20 11:06 | 10.96769 | 82.11589 | 35812 ft | 497 kts | 291° |
| 2026-04-20 11:06 | 10.99648 | 82.05199 | 35813 ft | 497 kts | 291° |
| 2026-04-20 11:07 | 11.02527 | 81.98805 | 35812 ft | 497 kts | 291° |
| 2026-04-20 11:07 | 11.05403 | 81.92413 | 35809 ft | 496 kts | 291° |
| 2026-04-20 11:08 | 11.08248 | 81.86085 | 35811 ft | 496 kts | 291° |
| 2026-04-20 11:08 | 11.11120 | 81.79695 | 35811 ft | 495 kts | 291° |
| 2026-04-20 11:09 | 11.13987 | 81.73308 | 35811 ft | 495 kts | 291° |
| 2026-04-20 11:09 | 11.16827 | 81.66981 | 35810 ft | 494 kts | 291° |
| 2026-04-20 11:10 | 11.19681 | 81.60616 | 35808 ft | 494 kts | 291° |
| 2026-04-20 11:10 | 11.22527 | 81.54265 | 35809 ft | 493 kts | 291° |
| 2026-04-20 11:11 | 11.25376 | 81.47903 | 35810 ft | 493 kts | 291° |
| 2026-04-20 11:11 | 11.28218 | 81.41552 | 35812 ft | 493 kts | 291° |
| 2026-04-20 11:12 | 11.31041 | 81.35241 | 35809 ft | 492 kts | 291° |
| 2026-04-20 11:12 | 11.33881 | 81.28888 | 35806 ft | 492 kts | 291° |
| 2026-04-20 11:13 | 11.36717 | 81.22537 | 35811 ft | 493 kts | 291° |
| 2026-04-20 11:13 | 11.39553 | 81.16183 | 35808 ft | 493 kts | 291° |
| 2026-04-20 11:14 | 11.42370 | 81.09868 | 35795 ft | 493 kts | 291° |
| 2026-04-20 11:14 | 11.45202 | 81.03514 | 35795 ft | 493 kts | 291° |
| 2026-04-20 11:15 | 11.48036 | 80.97151 | 35790 ft | 493 kts | 291° |
| 2026-04-20 11:15 | 11.50865 | 80.90795 | 35792 ft | 493 kts | 291° |
| 2026-04-20 11:16 | 11.53674 | 80.84480 | 35787 ft | 492 kts | 291° |
| 2026-04-20 11:16 | 11.56502 | 80.78118 | 35787 ft | 492 kts | 291° |
| 2026-04-20 11:17 | 11.59326 | 80.71761 | 35790 ft | 492 kts | 291° |
| 2026-04-20 11:17 | 11.62148 | 80.65405 | 35786 ft | 492 kts | 291° |
| 2026-04-20 11:18 | 11.64949 | 80.59091 | 35792 ft | 492 kts | 291° |
| 2026-04-20 11:18 | 11.67765 | 80.52738 | 35792 ft | 492 kts | 291° |
| 2026-04-20 11:19 | 11.70582 | 80.46376 | 35792 ft | 492 kts | 291° |
| 2026-04-20 11:19 | 11.73378 | 80.40061 | 35790 ft | 491 kts | 291° |
| 2026-04-20 11:20 | 11.76189 | 80.33707 | 35789 ft | 491 kts | 291° |
| 2026-04-20 11:20 | 11.78998 | 80.27352 | 35791 ft | 491 kts | 291° |
| 2026-04-20 11:21 | 11.81803 | 80.21003 | 35789 ft | 491 kts | 290° |
| 2026-04-20 11:21 | 11.84608 | 80.14649 | 35788 ft | 490 kts | 290° |
| 2026-04-20 11:22 | 11.87383 | 80.08348 | 35782 ft | 490 kts | 290° |
| 2026-04-20 11:22 | 11.90153 | 80.01985 | 35777 ft | 490 kts | 290° |
| 2026-04-20 11:23 | 11.92914 | 79.95643 | 35775 ft | 489 kts | 290° |
| 2026-04-20 11:23 | 11.95661 | 79.89338 | 35773 ft | 489 kts | 290° |
| 2026-04-20 11:24 | 11.98429 | 79.82980 | 35773 ft | 489 kts | 290° |
| 2026-04-20 11:24 | 12.01187 | 79.76641 | 35772 ft | 489 kts | 290° |
| 2026-04-20 11:25 | 12.03946 | 79.70294 | 35772 ft | 489 kts | 290° |
| 2026-04-20 11:25 | 12.06705 | 79.63944 | 35771 ft | 489 kts | 290° |
| 2026-04-20 11:26 | 12.09455 | 79.57637 | 35770 ft | 489 kts | 290° |
| 2026-04-20 11:26 | 12.12336 | 79.51341 | 35766 ft | 489 kts | 291° |
| 2026-04-20 11:27 | 12.15222 | 79.45053 | 35765 ft | 489 kts | 291° |
| 2026-04-20 11:27 | 12.18096 | 79.38751 | 35768 ft | 489 kts | 291° |
| 2026-04-20 11:28 | 12.20941 | 79.32494 | 35768 ft | 489 kts | 291° |
| 2026-04-20 11:28 | 12.23803 | 79.26198 | 35767 ft | 489 kts | 291° |
| 2026-04-20 11:29 | 12.26667 | 79.19893 | 35769 ft | 488 kts | 291° |
| 2026-04-20 11:29 | 12.29523 | 79.13601 | 35765 ft | 488 kts | 291° |
| 2026-04-20 11:30 | 12.32360 | 79.07346 | 35771 ft | 488 kts | 290° |
| 2026-04-20 11:30 | 12.35213 | 79.01051 | 35772 ft | 487 kts | 290° |
| 2026-04-20 11:31 | 12.38060 | 78.94766 | 35771 ft | 487 kts | 290° |
| 2026-04-20 11:31 | 12.40906 | 78.88476 | 35780 ft | 487 kts | 290° |
| 2026-04-20 11:32 | 12.43734 | 78.82224 | 35783 ft | 487 kts | 290° |
| 2026-04-20 11:32 | 12.46576 | 78.75935 | 35792 ft | 487 kts | 290° |
| 2026-04-20 11:33 | 12.49420 | 78.69638 | 35800 ft | 487 kts | 290° |
| 2026-04-20 11:33 | 12.52256 | 78.63352 | 35808 ft | 487 kts | 290° |
| 2026-04-20 11:34 | 12.55096 | 78.57056 | 35815 ft | 487 kts | 290° |
| 2026-04-20 11:34 | 12.57929 | 78.50767 | 35820 ft | 487 kts | 290° |
| 2026-04-20 11:35 | 12.60745 | 78.44513 | 35827 ft | 487 kts | 290° |
| 2026-04-20 11:35 | 12.63579 | 78.38215 | 35838 ft | 487 kts | 290° |
| 2026-04-20 11:36 | 12.66406 | 78.31927 | 35844 ft | 487 kts | 290° |
| 2026-04-20 11:36 | 12.69238 | 78.25623 | 35855 ft | 486 kts | 290° |
| 2026-04-20 11:37 | 12.72044 | 78.19372 | 35860 ft | 486 kts | 290° |
| 2026-04-20 11:37 | 12.76281 | 78.09925 | 35871 ft | 486 kts | 290° |
| 2026-04-20 11:38 | 12.79100 | 78.03635 | 35883 ft | 486 kts | 290° |
| 2026-04-20 11:38 | 12.81914 | 77.97351 | 35887 ft | 486 kts | 290° |
| 2026-04-20 11:39 | 12.84709 | 77.91101 | 35901 ft | 485 kts | 290° |
| 2026-04-20 11:39 | 12.87521 | 77.84813 | 35905 ft | 485 kts | 290° |
| 2026-04-20 11:40 | 12.90332 | 77.78522 | 35910 ft | 485 kts | 290° |
| 2026-04-20 11:40 | 12.93136 | 77.72239 | 35914 ft | 485 kts | 290° |
| 2026-04-20 11:41 | 12.96060 | 77.66045 | 35912 ft | 488 kts | 294° |
| 2026-04-20 11:41 | 12.99344 | 77.59965 | 35910 ft | 487 kts | 294° |
| 2026-04-20 11:42 | 13.02610 | 77.53870 | 35909 ft | 487 kts | 294° |
| 2026-04-20 11:42 | 13.05844 | 77.47823 | 35910 ft | 487 kts | 294° |
| 2026-04-20 11:43 | 13.09103 | 77.41730 | 35903 ft | 487 kts | 294° |
| 2026-04-20 11:43 | 13.12361 | 77.35632 | 35901 ft | 487 kts | 294° |
| 2026-04-20 11:44 | 13.15616 | 77.29537 | 35896 ft | 487 kts | 294° |
| 2026-04-20 11:44 | 13.18867 | 77.23444 | 35882 ft | 486 kts | 294° |
| 2026-04-20 11:45 | 13.22086 | 77.17407 | 35885 ft | 486 kts | 294° |
| 2026-04-20 11:45 | 13.25333 | 77.11312 | 35889 ft | 486 kts | 294° |
| 2026-04-20 11:46 | 13.28573 | 77.05227 | 35888 ft | 486 kts | 293° |
| 2026-04-20 11:46 | 13.31802 | 76.99159 | 35882 ft | 485 kts | 293° |
| 2026-04-20 11:47 | 13.35016 | 76.93115 | 35877 ft | 485 kts | 293° |
| 2026-04-20 11:47 | 13.38246 | 76.87035 | 35867 ft | 485 kts | 293° |
| 2026-04-20 11:48 | 13.41470 | 76.80963 | 35866 ft | 485 kts | 293° |
| 2026-04-20 11:48 | 13.44696 | 76.74883 | 35858 ft | 485 kts | 293° |
| 2026-04-20 11:49 | 13.47922 | 76.68799 | 35872 ft | 485 kts | 293° |
| 2026-04-20 11:49 | 13.51127 | 76.62748 | 35867 ft | 485 kts | 293° |
| 2026-04-20 11:50 | 13.54345 | 76.56670 | 35859 ft | 485 kts | 293° |
| 2026-04-20 11:50 | 13.57572 | 76.50571 | 35852 ft | 485 kts | 293° |
| 2026-04-20 11:51 | 13.60792 | 76.44479 | 35855 ft | 485 kts | 293° |
| 2026-04-20 11:51 | 13.63992 | 76.38421 | 35851 ft | 485 kts | 293° |
| 2026-04-20 11:52 | 13.67212 | 76.32322 | 35855 ft | 486 kts | 293° |
| 2026-04-20 11:52 | 13.70432 | 76.26218 | 35857 ft | 486 kts | 293° |
| 2026-04-20 11:53 | 13.73655 | 76.20104 | 35856 ft | 486 kts | 293° |
| 2026-04-20 11:53 | 13.76851 | 76.14036 | 35859 ft | 486 kts | 293° |
| 2026-04-20 11:54 | 13.80064 | 76.07930 | 35856 ft | 486 kts | 293° |
| 2026-04-20 11:54 | 13.83285 | 76.01807 | 35855 ft | 486 kts | 293° |
| 2026-04-20 11:55 | 13.86499 | 75.95691 | 35858 ft | 486 kts | 292° |
| 2026-04-20 11:55 | 13.89708 | 75.89581 | 35850 ft | 485 kts | 292° |
| 2026-04-20 11:56 | 13.92886 | 75.83525 | 35844 ft | 485 kts | 292° |
| 2026-04-20 11:56 | 13.96090 | 75.77414 | 35836 ft | 484 kts | 292° |
| 2026-04-20 11:57 | 13.99285 | 75.71316 | 35834 ft | 484 kts | 292° |
| 2026-04-20 11:57 | 14.02476 | 75.65221 | 35830 ft | 483 kts | 292° |
| 2026-04-20 11:58 | 14.05648 | 75.59159 | 35831 ft | 483 kts | 292° |
| 2026-04-20 11:58 | 14.08834 | 75.53066 | 35833 ft | 483 kts | 292° |
| 2026-04-20 11:59 | 14.12007 | 75.46974 | 35836 ft | 482 kts | 292° |
| 2026-04-20 11:59 | 14.15176 | 75.40879 | 35833 ft | 483 kts | 292° |
| 2026-04-20 12:00 | 14.18324 | 75.34821 | 35832 ft | 483 kts | 292° |
| 2026-04-20 12:00 | 14.21495 | 75.28716 | 35833 ft | 484 kts | 292° |
| 2026-04-20 12:01 | 14.24671 | 75.22597 | 35839 ft | 484 kts | 292° |
| 2026-04-20 12:01 | 14.27849 | 75.16471 | 35840 ft | 485 kts | 292° |
| 2026-04-20 12:02 | 14.31006 | 75.10380 | 35840 ft | 486 kts | 292° |
| 2026-04-20 12:02 | 14.34188 | 75.04235 | 35842 ft | 487 kts | 292° |
| 2026-04-20 12:03 | 14.37381 | 74.98066 | 35847 ft | 487 kts | 292° |
| 2026-04-20 12:03 | 14.40569 | 74.91901 | 35851 ft | 487 kts | 292° |
| 2026-04-20 12:04 | 14.43734 | 74.85776 | 35848 ft | 487 kts | 291° |
| 2026-04-20 12:04 | 14.46912 | 74.79620 | 35848 ft | 487 kts | 291° |
| 2026-04-20 12:05 | 14.50106 | 74.73462 | 35840 ft | 486 kts | 292° |
| 2026-04-20 12:05 | 14.53360 | 74.67342 | 35825 ft | 486 kts | 292° |
| 2026-04-20 12:06 | 14.56606 | 74.61226 | 35826 ft | 485 kts | 292° |
| 2026-04-20 12:06 | 14.59816 | 74.55157 | 35811 ft | 485 kts | 292° |
| 2026-04-20 12:07 | 14.63045 | 74.49041 | 35805 ft | 485 kts | 292° |
| 2026-04-20 12:07 | 14.66272 | 74.42927 | 35806 ft | 485 kts | 292° |
| 2026-04-20 12:08 | 14.69499 | 74.36808 | 35806 ft | 485 kts | 292° |
| 2026-04-20 12:08 | 14.72708 | 74.30720 | 35806 ft | 486 kts | 292° |
| 2026-04-20 12:09 | 14.75934 | 74.24593 | 35810 ft | 486 kts | 292° |
| 2026-04-20 12:09 | 14.79163 | 74.18454 | 35811 ft | 486 kts | 291° |
| 2026-04-20 12:10 | 14.82391 | 74.12312 | 35814 ft | 486 kts | 291° |
| 2026-04-20 12:10 | 14.85616 | 74.06175 | 35806 ft | 485 kts | 291° |
| 2026-04-20 12:11 | 14.88815 | 74.00080 | 35801 ft | 485 kts | 291° |
| 2026-04-20 12:11 | 14.92028 | 73.93954 | 35798 ft | 484 kts | 291° |
| 2026-04-20 12:12 | 14.95237 | 73.87839 | 35792 ft | 484 kts | 291° |
| 2026-04-20 12:12 | 14.98420 | 73.81767 | 35788 ft | 484 kts | 291° |
| 2026-04-20 12:13 | 15.01621 | 73.75654 | 35788 ft | 483 kts | 291° |
| 2026-04-20 12:13 | 15.04813 | 73.69536 | 35785 ft | 483 kts | 291° |
| 2026-04-20 12:14 | 15.08005 | 73.63416 | 35789 ft | 483 kts | 291° |
| 2026-04-20 12:14 | 15.11176 | 73.57334 | 35788 ft | 483 kts | 291° |
| 2026-04-20 12:15 | 15.14367 | 73.51207 | 35788 ft | 483 kts | 291° |
| 2026-04-20 12:15 | 15.17554 | 73.45084 | 35789 ft | 483 kts | 291° |
| 2026-04-20 12:16 | 15.20742 | 73.38953 | 35789 ft | 483 kts | 291° |
| 2026-04-20 12:16 | 15.23905 | 73.32865 | 35788 ft | 483 kts | 291° |
| 2026-04-20 12:17 | 15.27085 | 73.26740 | 35791 ft | 483 kts | 291° |
| 2026-04-20 12:17 | 15.30261 | 73.20618 | 35796 ft | 483 kts | 291° |
| 2026-04-20 12:18 | 15.33440 | 73.14484 | 35797 ft | 483 kts | 291° |
| 2026-04-20 12:18 | 15.36588 | 73.08404 | 35797 ft | 482 kts | 291° |
| 2026-04-20 12:19 | 15.39758 | 73.02278 | 35800 ft | 482 kts | 291° |
| 2026-04-20 12:19 | 15.42929 | 72.96144 | 35800 ft | 482 kts | 291° |
| 2026-04-20 12:20 | 15.46091 | 72.90023 | 35801 ft | 482 kts | 291° |
| 2026-04-20 12:20 | 15.49258 | 72.83887 | 35801 ft | 482 kts | 291° |
| 2026-04-20 12:21 | 15.52415 | 72.77765 | 35801 ft | 482 kts | 291° |
| 2026-04-20 12:21 | 15.55556 | 72.71669 | 35806 ft | 482 kts | 291° |
| 2026-04-20 12:22 | 15.58712 | 72.65539 | 35805 ft | 482 kts | 291° |
| 2026-04-20 12:22 | 15.61869 | 72.59401 | 35803 ft | 482 kts | 291° |
| 2026-04-20 12:23 | 15.65027 | 72.53256 | 35809 ft | 482 kts | 291° |
| 2026-04-20 12:23 | 15.68154 | 72.47167 | 35809 ft | 482 kts | 291° |
| 2026-04-20 12:24 | 15.71310 | 72.41017 | 35806 ft | 482 kts | 291° |
| 2026-04-20 12:24 | 15.74459 | 72.34875 | 35809 ft | 482 kts | 291° |
| 2026-04-20 12:25 | 15.77610 | 72.28721 | 35808 ft | 482 kts | 290° |
| 2026-04-20 12:25 | 15.80737 | 72.22611 | 35795 ft | 482 kts | 290° |
| 2026-04-20 12:26 | 15.83883 | 72.16460 | 35800 ft | 482 kts | 290° |
| 2026-04-20 12:26 | 15.87028 | 72.10303 | 35811 ft | 482 kts | 290° |
| 2026-04-20 12:27 | 15.90169 | 72.04149 | 35807 ft | 482 kts | 290° |
| 2026-04-20 12:27 | 15.93312 | 71.97988 | 35811 ft | 482 kts | 290° |
| 2026-04-20 12:28 | 15.96426 | 71.91876 | 35810 ft | 482 kts | 290° |
| 2026-04-20 12:28 | 15.99565 | 71.85710 | 35818 ft | 482 kts | 290° |
| 2026-04-20 12:29 | 16.02699 | 71.79550 | 35812 ft | 482 kts | 290° |
| 2026-04-20 12:29 | 16.05831 | 71.73388 | 35811 ft | 482 kts | 290° |
| 2026-04-20 12:30 | 16.08944 | 71.67258 | 35814 ft | 482 kts | 290° |
| 2026-04-20 12:30 | 16.12096 | 71.61109 | 35813 ft | 483 kts | 291° |
| 2026-04-20 12:31 | 16.15320 | 71.54979 | 35812 ft | 483 kts | 291° |
| 2026-04-20 12:31 | 16.18531 | 71.48856 | 35811 ft | 483 kts | 291° |
| 2026-04-20 12:32 | 16.21722 | 71.42748 | 35812 ft | 483 kts | 291° |
| 2026-04-20 12:32 | 16.24923 | 71.36613 | 35814 ft | 483 kts | 291° |
| 2026-04-20 12:33 | 16.28124 | 71.30473 | 35817 ft | 483 kts | 291° |
| 2026-04-20 12:33 | 16.31320 | 71.24335 | 35816 ft | 483 kts | 291° |
| 2026-04-20 12:34 | 16.34499 | 71.18226 | 35819 ft | 482 kts | 291° |
| 2026-04-20 12:34 | 16.37689 | 71.12090 | 35817 ft | 482 kts | 291° |
| 2026-04-20 12:35 | 16.40884 | 71.05941 | 35819 ft | 482 kts | 291° |
| 2026-04-20 12:35 | 16.44073 | 70.99796 | 35822 ft | 482 kts | 291° |
| 2026-04-20 12:36 | 16.47259 | 70.93652 | 35827 ft | 482 kts | 291° |
| 2026-04-20 12:36 | 16.50419 | 70.87552 | 35821 ft | 482 kts | 291° |
| 2026-04-20 12:37 | 16.53601 | 70.81411 | 35825 ft | 482 kts | 292° |
| 2026-04-20 12:37 | 16.56815 | 70.75281 | 35822 ft | 482 kts | 292° |
| 2026-04-20 12:38 | 16.60031 | 70.69151 | 35819 ft | 482 kts | 292° |
| 2026-04-20 12:38 | 16.63216 | 70.63065 | 35822 ft | 481 kts | 292° |
| 2026-04-20 12:39 | 16.68018 | 70.53875 | 35823 ft | 481 kts | 292° |
| 2026-04-20 12:40 | 16.71220 | 70.47740 | 35828 ft | 481 kts | 292° |
| 2026-04-20 12:40 | 16.74415 | 70.41613 | 35822 ft | 481 kts | 292° |
| 2026-04-20 12:41 | 16.77581 | 70.35535 | 35827 ft | 481 kts | 292° |
| 2026-04-20 12:41 | 16.80773 | 70.29404 | 35834 ft | 481 kts | 292° |
| 2026-04-20 12:42 | 16.83967 | 70.23262 | 35816 ft | 480 kts | 292° |
| 2026-04-20 12:42 | 16.87148 | 70.17138 | 35837 ft | 480 kts | 292° |
| 2026-04-20 12:43 | 16.90312 | 70.11044 | 35839 ft | 480 kts | 293° |
| 2026-04-20 12:43 | 16.93496 | 70.04905 | 35835 ft | 480 kts | 293° |
| 2026-04-20 12:44 | 16.96672 | 69.98775 | 35828 ft | 480 kts | 293° |
| 2026-04-20 12:44 | 16.99850 | 69.92636 | 35827 ft | 480 kts | 293° |
| 2026-04-20 12:45 | 17.03025 | 69.86498 | 35828 ft | 480 kts | 294° |
| 2026-04-20 12:45 | 17.06177 | 69.80398 | 35834 ft | 480 kts | 294° |
| 2026-04-20 12:46 | 17.09348 | 69.74256 | 35840 ft | 480 kts | 294° |
| 2026-04-20 12:46 | 17.12504 | 69.68136 | 35836 ft | 480 kts | 294° |
| 2026-04-20 12:47 | 17.15672 | 69.61989 | 35839 ft | 480 kts | 294° |
| 2026-04-20 12:47 | 17.18821 | 69.55872 | 35841 ft | 481 kts | 294° |
| 2026-04-20 12:48 | 17.22001 | 69.49720 | 35842 ft | 481 kts | 295° |
| 2026-04-20 12:48 | 17.25194 | 69.43570 | 35842 ft | 481 kts | 295° |
| 2026-04-20 12:49 | 17.28376 | 69.37429 | 35842 ft | 481 kts | 295° |
| 2026-04-20 12:49 | 17.31543 | 69.31309 | 35846 ft | 481 kts | 295° |
| 2026-04-20 12:50 | 17.34727 | 69.25150 | 35846 ft | 481 kts | 295° |
| 2026-04-20 12:50 | 17.37912 | 69.18983 | 35844 ft | 481 kts | 295° |
| 2026-04-20 12:51 | 17.41089 | 69.12824 | 35843 ft | 481 kts | 295° |
| 2026-04-20 12:51 | 17.44269 | 69.06655 | 35846 ft | 481 kts | 295° |
| 2026-04-20 12:52 | 17.47424 | 69.00527 | 35844 ft | 481 kts | 295° |
| 2026-04-20 12:52 | 17.50586 | 68.94381 | 35846 ft | 481 kts | 295° |
| 2026-04-20 12:53 | 17.53770 | 68.88185 | 35854 ft | 481 kts | 295° |
| 2026-04-20 12:53 | 17.56942 | 68.82008 | 35850 ft | 481 kts | 296° |
| 2026-04-20 12:54 | 17.60090 | 68.75872 | 35848 ft | 481 kts | 296° |
| 2026-04-20 12:54 | 17.63259 | 68.69689 | 35855 ft | 481 kts | 296° |
| 2026-04-20 12:55 | 17.66425 | 68.63505 | 35853 ft | 482 kts | 296° |
| 2026-04-20 12:55 | 17.69594 | 68.57310 | 35856 ft | 482 kts | 296° |
| 2026-04-20 12:56 | 17.72735 | 68.51163 | 35857 ft | 482 kts | 296° |
| 2026-04-20 12:56 | 17.75897 | 68.44970 | 35859 ft | 482 kts | 296° |
| 2026-04-20 12:57 | 17.79056 | 68.38775 | 35855 ft | 482 kts | 296° |
| 2026-04-20 12:57 | 17.82215 | 68.32576 | 35854 ft | 482 kts | 296° |
| 2026-04-20 12:58 | 17.85370 | 68.26378 | 35859 ft | 481 kts | 296° |
| 2026-04-20 12:58 | 17.88503 | 68.20218 | 35863 ft | 481 kts | 296° |
| 2026-04-20 12:59 | 17.91654 | 68.14015 | 35855 ft | 481 kts | 296° |
| 2026-04-20 12:59 | 17.94800 | 68.07818 | 35852 ft | 481 kts | 297° |
| 2026-04-20 13:00 | 17.97417 | 68.02656 | 35864 ft | 481 kts | 297° |
| 2026-04-20 13:00 | 18.01072 | 67.95442 | 35855 ft | 482 kts | 297° |
| 2026-04-20 13:01 | 18.04215 | 67.89230 | 35853 ft | 482 kts | 297° |
| 2026-04-20 13:01 | 18.07359 | 67.83015 | 35855 ft | 482 kts | 297° |
| 2026-04-20 13:02 | 18.10562 | 67.76824 | 35855 ft | 482 kts | 298° |
| 2026-04-20 13:02 | 18.13794 | 67.70705 | 35857 ft | 482 kts | 298° |
| 2026-04-20 13:03 | 18.17037 | 67.64536 | 35859 ft | 482 kts | 298° |
| 2026-04-20 13:03 | 18.20272 | 67.58358 | 35862 ft | 482 kts | 298° |
| 2026-04-20 13:04 | 18.22955 | 67.53228 | 35856 ft | 482 kts | 298° |
| 2026-04-20 13:04 | 18.26706 | 67.46047 | 35869 ft | 482 kts | 298° |
| 2026-04-20 13:05 | 18.29410 | 67.40865 | 35860 ft | 482 kts | 298° |
| 2026-04-20 13:05 | 18.33156 | 67.33680 | 35861 ft | 482 kts | 298° |
| 2026-04-20 13:06 | 18.35836 | 67.28536 | 35862 ft | 482 kts | 298° |
| 2026-04-20 13:06 | 18.39578 | 67.21343 | 35862 ft | 482 kts | 298° |
| 2026-04-20 13:07 | 18.42797 | 67.15151 | 35864 ft | 482 kts | 298° |
| 2026-04-20 13:07 | 18.46016 | 67.08952 | 35864 ft | 482 kts | 298° |
| 2026-04-20 13:08 | 18.48689 | 67.03799 | 35863 ft | 482 kts | 298° |
| 2026-04-20 13:08 | 18.51903 | 66.97600 | 35860 ft | 482 kts | 298° |
| 2026-04-20 13:09 | 18.55112 | 66.91401 | 35861 ft | 482 kts | 298° |
| 2026-04-20 13:09 | 18.58302 | 66.85234 | 35865 ft | 482 kts | 298° |
| 2026-04-20 13:10 | 18.61512 | 66.79022 | 35863 ft | 483 kts | 298° |
| 2026-04-20 13:10 | 18.64721 | 66.72806 | 35864 ft | 482 kts | 298° |
| 2026-04-20 13:11 | 18.67924 | 66.66595 | 35866 ft | 483 kts | 298° |
| 2026-04-20 13:11 | 18.71130 | 66.60373 | 35866 ft | 482 kts | 298° |
| 2026-04-20 13:12 | 18.74312 | 66.54189 | 35868 ft | 482 kts | 298° |
| 2026-04-20 13:12 | 18.77511 | 66.47968 | 35865 ft | 482 kts | 298° |
| 2026-04-20 13:13 | 18.80704 | 66.41751 | 35865 ft | 482 kts | 298° |
| 2026-04-20 13:13 | 18.83897 | 66.35529 | 35867 ft | 482 kts | 298° |
| 2026-04-20 13:14 | 18.87085 | 66.29309 | 35865 ft | 482 kts | 298° |
| 2026-04-20 13:14 | 18.90248 | 66.23131 | 35866 ft | 482 kts | 298° |
| 2026-04-20 13:15 | 18.93433 | 66.16906 | 35869 ft | 481 kts | 298° |
| 2026-04-20 13:15 | 18.96611 | 66.10685 | 35867 ft | 481 kts | 298° |
| 2026-04-20 13:16 | 18.99787 | 66.04464 | 35868 ft | 481 kts | 298° |
| 2026-04-20 13:16 | 19.02934 | 65.98292 | 35867 ft | 481 kts | 298° |
| 2026-04-20 13:17 | 19.06101 | 65.92076 | 35862 ft | 480 kts | 298° |
| 2026-04-20 13:17 | 19.09269 | 65.85850 | 35862 ft | 480 kts | 298° |
| 2026-04-20 13:18 | 19.12431 | 65.79630 | 35864 ft | 480 kts | 298° |
| 2026-04-20 13:18 | 19.15591 | 65.73407 | 35868 ft | 481 kts | 298° |
| 2026-04-20 13:19 | 19.18731 | 65.67217 | 35873 ft | 481 kts | 298° |
| 2026-04-20 13:19 | 19.21890 | 65.60983 | 35869 ft | 481 kts | 298° |
| 2026-04-20 13:20 | 19.25050 | 65.54740 | 35872 ft | 481 kts | 298° |
| 2026-04-20 13:20 | 19.28209 | 65.48494 | 35867 ft | 481 kts | 298° |
| 2026-04-20 13:21 | 19.31363 | 65.42249 | 35870 ft | 481 kts | 298° |
| 2026-04-20 13:21 | 19.34492 | 65.36049 | 35867 ft | 481 kts | 298° |
| 2026-04-20 13:22 | 19.37644 | 65.29796 | 35871 ft | 481 kts | 298° |
| 2026-04-20 13:22 | 19.40793 | 65.23542 | 35871 ft | 481 kts | 298° |
| 2026-04-20 13:23 | 19.43941 | 65.17284 | 35870 ft | 481 kts | 298° |
| 2026-04-20 13:23 | 19.47065 | 65.11067 | 35875 ft | 481 kts | 298° |
| 2026-04-20 13:24 | 19.50209 | 65.04805 | 35872 ft | 481 kts | 298° |
| 2026-04-20 13:24 | 19.53356 | 64.98539 | 35872 ft | 481 kts | 298° |
| 2026-04-20 13:25 | 19.56557 | 64.92320 | 35870 ft | 481 kts | 299° |
| 2026-04-20 13:25 | 19.59754 | 64.86138 | 35870 ft | 481 kts | 299° |
| 2026-04-20 13:26 | 19.62961 | 64.79914 | 35872 ft | 481 kts | 299° |
| 2026-04-20 13:26 | 19.66166 | 64.73680 | 35871 ft | 481 kts | 299° |
| 2026-04-20 13:27 | 19.69362 | 64.67451 | 35875 ft | 481 kts | 299° |
| 2026-04-20 13:27 | 19.72540 | 64.61253 | 35873 ft | 481 kts | 299° |
| 2026-04-20 13:28 | 19.75730 | 64.55025 | 35871 ft | 481 kts | 299° |
| 2026-04-20 13:28 | 19.78922 | 64.48785 | 35872 ft | 481 kts | 299° |
| 2026-04-20 13:29 | 19.82110 | 64.42547 | 35875 ft | 480 kts | 299° |
| 2026-04-20 13:29 | 19.85274 | 64.36350 | 35872 ft | 480 kts | 299° |
| 2026-04-20 13:30 | 19.88454 | 64.30114 | 35872 ft | 480 kts | 299° |
| 2026-04-20 13:30 | 19.91635 | 64.23869 | 35871 ft | 480 kts | 300° |
| 2026-04-20 13:31 | 19.94806 | 64.17638 | 35872 ft | 480 kts | 300° |
| 2026-04-20 13:31 | 19.97980 | 64.11394 | 35867 ft | 480 kts | 300° |
| 2026-04-20 13:32 | 20.01147 | 64.05155 | 35867 ft | 480 kts | 300° |
| 2026-04-20 13:32 | 20.04294 | 63.98950 | 35869 ft | 479 kts | 300° |
| 2026-04-20 13:33 | 20.07455 | 63.92711 | 35869 ft | 479 kts | 300° |
| 2026-04-20 13:33 | 20.10612 | 63.86473 | 35866 ft | 479 kts | 300° |
| 2026-04-20 13:34 | 20.13765 | 63.80236 | 35866 ft | 479 kts | 300° |
| 2026-04-20 13:34 | 20.16898 | 63.74033 | 35867 ft | 479 kts | 300° |
| 2026-04-20 13:35 | 20.20045 | 63.67794 | 35867 ft | 478 kts | 300° |
| 2026-04-20 13:35 | 20.23191 | 63.61550 | 35871 ft | 478 kts | 300° |
| 2026-04-20 13:36 | 20.26332 | 63.55308 | 35871 ft | 478 kts | 300° |
| 2026-04-20 13:36 | 20.29472 | 63.49063 | 35872 ft | 478 kts | 300° |
| 2026-04-20 13:37 | 20.32586 | 63.42862 | 35874 ft | 478 kts | 300° |
| 2026-04-20 13:37 | 20.35721 | 63.36612 | 35878 ft | 478 kts | 300° |
| 2026-04-20 13:38 | 20.39235 | 63.30644 | 35870 ft | 475 kts | 305° |
| 2026-04-20 13:38 | 20.42815 | 63.24719 | 35870 ft | 475 kts | 305° |
| 2026-04-20 13:39 | 20.46378 | 63.18835 | 35869 ft | 475 kts | 305° |
| 2026-04-20 13:39 | 20.49965 | 63.12917 | 35866 ft | 475 kts | 305° |
| 2026-04-20 13:40 | 20.53554 | 63.06992 | 35866 ft | 475 kts | 305° |
| 2026-04-20 13:40 | 20.57133 | 63.01074 | 35869 ft | 474 kts | 305° |
| 2026-04-20 13:41 | 20.60681 | 62.95200 | 35869 ft | 474 kts | 305° |
| 2026-04-20 13:41 | 20.64250 | 62.89285 | 35871 ft | 474 kts | 305° |
| 2026-04-20 13:42 | 20.67806 | 62.83384 | 35869 ft | 473 kts | 305° |
| 2026-04-20 13:42 | 20.73125 | 62.74548 | 35866 ft | 473 kts | 305° |
| 2026-04-20 13:43 | 20.76675 | 62.68644 | 35864 ft | 472 kts | 305° |
| 2026-04-20 13:43 | 20.80223 | 62.62735 | 35862 ft | 472 kts | 305° |
| 2026-04-20 13:44 | 20.83767 | 62.56829 | 35862 ft | 472 kts | 305° |
| 2026-04-20 13:44 | 20.87282 | 62.50962 | 35860 ft | 472 kts | 305° |
| 2026-04-20 13:45 | 20.90820 | 62.45053 | 35856 ft | 471 kts | 305° |
| 2026-04-20 13:45 | 20.94352 | 62.39148 | 35855 ft | 471 kts | 305° |
| 2026-04-20 13:46 | 20.97885 | 62.33234 | 35857 ft | 471 kts | 305° |
| 2026-04-20 13:46 | 21.01393 | 62.27356 | 35856 ft | 472 kts | 305° |
| 2026-04-20 13:47 | 21.04921 | 62.21439 | 35859 ft | 472 kts | 305° |
| 2026-04-20 13:47 | 21.08441 | 62.15528 | 35861 ft | 471 kts | 305° |
| 2026-04-20 13:48 | 21.11965 | 62.09604 | 35862 ft | 471 kts | 305° |
| 2026-04-20 13:48 | 21.15459 | 62.03725 | 35858 ft | 471 kts | 305° |
| 2026-04-20 13:49 | 21.18971 | 61.97810 | 35857 ft | 471 kts | 305° |
| 2026-04-20 13:49 | 21.22486 | 61.91883 | 35859 ft | 470 kts | 305° |
| 2026-04-20 13:50 | 21.25964 | 61.86011 | 35854 ft | 470 kts | 305° |
| 2026-04-20 13:50 | 21.29467 | 61.80092 | 35856 ft | 470 kts | 305° |
| 2026-04-20 13:51 | 21.32964 | 61.74176 | 35852 ft | 470 kts | 305° |
| 2026-04-20 13:51 | 21.36462 | 61.68253 | 35856 ft | 470 kts | 305° |
| 2026-04-20 13:52 | 21.39937 | 61.62362 | 35854 ft | 470 kts | 305° |
| 2026-04-20 13:52 | 21.43426 | 61.56442 | 35857 ft | 470 kts | 305° |
| 2026-04-20 13:53 | 21.46917 | 61.50511 | 35856 ft | 470 kts | 305° |
| 2026-04-20 13:53 | 21.50406 | 61.44576 | 35856 ft | 470 kts | 305° |
| 2026-04-20 13:54 | 21.53893 | 61.38639 | 35851 ft | 470 kts | 305° |
| 2026-04-20 13:54 | 21.57355 | 61.32738 | 35867 ft | 470 kts | 305° |
| 2026-04-20 13:55 | 21.60840 | 61.26793 | 35866 ft | 470 kts | 305° |
| 2026-04-20 13:55 | 21.64321 | 61.20848 | 35865 ft | 470 kts | 305° |
| 2026-04-20 13:56 | 21.67779 | 61.14936 | 35862 ft | 470 kts | 305° |
| 2026-04-20 13:56 | 21.71257 | 61.08981 | 35860 ft | 470 kts | 305° |
| 2026-04-20 13:57 | 21.74736 | 61.03019 | 35854 ft | 470 kts | 305° |
| 2026-04-20 13:57 | 21.78208 | 60.97062 | 35855 ft | 470 kts | 305° |
| 2026-04-20 13:58 | 21.81682 | 60.91095 | 35832 ft | 471 kts | 305° |
| 2026-04-20 13:58 | 21.85155 | 60.85125 | 35830 ft | 471 kts | 305° |
| 2026-04-20 13:59 | 21.88603 | 60.79190 | 35825 ft | 471 kts | 304° |
| 2026-04-20 13:59 | 21.92076 | 60.73205 | 35826 ft | 471 kts | 304° |
| 2026-04-20 14:00 | 21.95552 | 60.67209 | 35825 ft | 472 kts | 304° |
| 2026-04-20 14:00 | 21.99004 | 60.61248 | 35829 ft | 472 kts | 304° |
| 2026-04-20 14:01 | 22.02455 | 60.55281 | 35823 ft | 473 kts | 304° |
| 2026-04-20 14:01 | 22.05953 | 60.49226 | 35838 ft | 473 kts | 304° |
| 2026-04-20 14:02 | 22.09430 | 60.43201 | 35832 ft | 473 kts | 304° |
| 2026-04-20 14:02 | 22.12904 | 60.37174 | 35828 ft | 474 kts | 303° |
| 2026-04-20 14:03 | 22.16378 | 60.31142 | 35841 ft | 474 kts | 303° |
| 2026-04-20 14:03 | 22.19830 | 60.25140 | 35838 ft | 474 kts | 303° |
| 2026-04-20 14:04 | 22.23300 | 60.19100 | 35841 ft | 474 kts | 303° |
| 2026-04-20 14:04 | 22.26771 | 60.13050 | 35849 ft | 473 kts | 303° |
| 2026-04-20 14:05 | 22.30232 | 60.07013 | 35847 ft | 473 kts | 303° |
| 2026-04-20 14:05 | 22.33674 | 60.01001 | 35848 ft | 473 kts | 303° |
| 2026-04-20 14:06 | 22.37132 | 59.94954 | 35843 ft | 473 kts | 303° |
| 2026-04-20 14:06 | 22.40581 | 59.88916 | 35841 ft | 472 kts | 303° |
| 2026-04-20 14:07 | 22.44026 | 59.82878 | 35844 ft | 472 kts | 303° |
| 2026-04-20 14:07 | 22.47452 | 59.76867 | 35839 ft | 472 kts | 303° |
| 2026-04-20 14:08 | 22.50892 | 59.70825 | 35836 ft | 471 kts | 303° |
| 2026-04-20 14:08 | 22.54326 | 59.64785 | 35839 ft | 471 kts | 303° |
| 2026-04-20 14:09 | 22.57754 | 59.58749 | 35846 ft | 471 kts | 303° |
| 2026-04-20 14:09 | 22.61152 | 59.52760 | 35847 ft | 470 kts | 303° |
| 2026-04-20 14:10 | 22.64568 | 59.46731 | 35857 ft | 469 kts | 303° |
| 2026-04-20 14:10 | 22.67960 | 59.40737 | 35855 ft | 468 kts | 303° |
| 2026-04-20 14:11 | 22.71367 | 59.34712 | 35862 ft | 468 kts | 303° |
| 2026-04-20 14:11 | 22.74732 | 59.28752 | 35862 ft | 467 kts | 303° |
| 2026-04-20 14:12 | 22.78122 | 59.22742 | 35864 ft | 466 kts | 303° |
| 2026-04-20 14:12 | 22.81489 | 59.16763 | 35852 ft | 465 kts | 303° |
| 2026-04-20 14:13 | 22.84849 | 59.10791 | 35855 ft | 464 kts | 303° |
| 2026-04-20 14:13 | 22.88184 | 59.04861 | 35851 ft | 463 kts | 303° |
| 2026-04-20 14:14 | 22.91532 | 58.98898 | 35844 ft | 463 kts | 303° |
| 2026-04-20 14:14 | 22.94877 | 58.92932 | 35836 ft | 462 kts | 303° |
| 2026-04-20 14:15 | 22.98208 | 58.86985 | 35831 ft | 461 kts | 303° |
| 2026-04-20 14:15 | 23.01538 | 58.81035 | 35833 ft | 460 kts | 303° |
| 2026-04-20 14:16 | 23.04831 | 58.75144 | 35827 ft | 460 kts | 303° |
| 2026-04-20 14:16 | 23.08138 | 58.69216 | 35830 ft | 459 kts | 303° |
| 2026-04-20 14:17 | 23.11443 | 58.63288 | 35818 ft | 458 kts | 303° |
| 2026-04-20 14:17 | 23.14733 | 58.57383 | 35814 ft | 457 kts | 302° |
| 2026-04-20 14:18 | 23.18023 | 58.51467 | 35812 ft | 457 kts | 302° |
| 2026-04-20 14:18 | 23.21282 | 58.45601 | 35810 ft | 456 kts | 302° |
| 2026-04-20 14:19 | 23.24560 | 58.39696 | 35807 ft | 456 kts | 302° |
| 2026-04-20 14:19 | 23.27833 | 58.33792 | 35806 ft | 456 kts | 302° |
| 2026-04-20 14:20 | 23.31105 | 58.27885 | 35801 ft | 456 kts | 302° |
| 2026-04-20 14:20 | 23.34355 | 58.22015 | 35806 ft | 456 kts | 302° |
| 2026-04-20 14:21 | 23.37623 | 58.16106 | 35804 ft | 455 kts | 302° |
| 2026-04-20 14:21 | 23.40909 | 58.10225 | 35808 ft | 454 kts | 304° |
| 2026-04-20 14:22 | 23.44578 | 58.04690 | 35808 ft | 454 kts | 307° |
| 2026-04-20 14:22 | 23.48307 | 57.99141 | 35800 ft | 454 kts | 306° |
| 2026-04-20 14:23 | 23.51977 | 57.93556 | 35833 ft | 454 kts | 306° |
| 2026-04-20 14:23 | 23.55647 | 57.87934 | 35831 ft | 454 kts | 306° |
| 2026-04-20 14:24 | 23.59303 | 57.82325 | 35841 ft | 454 kts | 306° |
| 2026-04-20 14:24 | 23.63152 | 57.76868 | 35846 ft | 454 kts | 309° |
| 2026-04-20 14:25 | 23.67082 | 57.71474 | 35842 ft | 454 kts | 308° |
| 2026-04-20 14:25 | 23.70945 | 57.66095 | 35844 ft | 454 kts | 308° |
| 2026-04-20 14:26 | 23.74818 | 57.60671 | 35844 ft | 453 kts | 308° |
| 2026-04-20 14:26 | 23.78693 | 57.55236 | 35844 ft | 453 kts | 308° |
| 2026-04-20 14:27 | 23.82531 | 57.49849 | 35847 ft | 453 kts | 308° |
| 2026-04-20 14:27 | 23.86411 | 57.44399 | 35845 ft | 453 kts | 308° |
| 2026-04-20 14:28 | 23.90260 | 57.38985 | 35633 ft | 448 kts | 308° |
| 2026-04-20 14:28 | 23.92169 | 57.36298 | 35399 ft | 449 kts | 308° |
| 2026-04-20 14:28 | 23.94085 | 57.33598 | 35163 ft | 451 kts | 308° |
| 2026-04-20 14:29 | 23.96025 | 57.30866 | 34929 ft | 455 kts | 308° |
| 2026-04-20 14:29 | 23.97967 | 57.28127 | 34686 ft | 458 kts | 308° |
| 2026-04-20 14:29 | 23.99896 | 57.25405 | 34126 ft | 460 kts | 308° |
| 2026-04-20 14:29 | 24.01871 | 57.22618 | 33185 ft | 466 kts | 307° |
| 2026-04-20 14:30 | 24.03850 | 57.19826 | 32572 ft | 462 kts | 307° |
| 2026-04-20 14:30 | 24.05798 | 57.17074 | 32104 ft | 456 kts | 307° |
| 2026-04-20 14:30 | 24.07734 | 57.14336 | 31496 ft | 453 kts | 306° |
| 2026-04-20 14:30 | 24.09659 | 57.11612 | 30884 ft | 450 kts | 306° |
| 2026-04-20 14:31 | 24.11568 | 57.08911 | 30281 ft | 448 kts | 306° |
| 2026-04-20 14:31 | 24.13471 | 57.06215 | 29632 ft | 447 kts | 306° |
| 2026-04-20 14:31 | 24.15338 | 57.03566 | 29021 ft | 443 kts | 306° |
| 2026-04-20 14:31 | 24.17210 | 57.00910 | 28434 ft | 439 kts | 306° |
| 2026-04-20 14:32 | 24.19062 | 56.98281 | 27836 ft | 435 kts | 306° |
| 2026-04-20 14:32 | 24.20905 | 56.95666 | 27252 ft | 431 kts | 306° |
| 2026-04-20 14:32 | 24.22718 | 56.93092 | 26659 ft | 427 kts | 306° |
| 2026-04-20 14:32 | 24.24527 | 56.90520 | 26075 ft | 423 kts | 306° |
| 2026-04-20 14:33 | 24.26315 | 56.87977 | 25487 ft | 420 kts | 306° |
| 2026-04-20 14:33 | 24.28085 | 56.85457 | 24911 ft | 416 kts | 307° |
| 2026-04-20 14:33 | 24.29824 | 56.82981 | 24353 ft | 413 kts | 307° |
| 2026-04-20 14:33 | 24.31565 | 56.80502 | 23793 ft | 409 kts | 307° |
| 2026-04-20 14:34 | 24.33298 | 56.78032 | 23188 ft | 406 kts | 307° |
| 2026-04-20 14:34 | 24.35010 | 56.75591 | 22593 ft | 402 kts | 307° |
| 2026-04-20 14:34 | 24.36703 | 56.73176 | 22048 ft | 396 kts | 307° |
| 2026-04-20 14:34 | 24.38375 | 56.70791 | 21499 ft | 392 kts | 307° |
| 2026-04-20 14:35 | 24.40023 | 56.68437 | 20975 ft | 388 kts | 307° |
| 2026-04-20 14:35 | 24.41658 | 56.66100 | 20420 ft | 384 kts | 307° |
| 2026-04-20 14:35 | 24.43277 | 56.63792 | 19899 ft | 381 kts | 308° |
| 2026-04-20 14:35 | 24.45016 | 56.61664 | 19387 ft | 378 kts | 313° |
| 2026-04-20 14:36 | 24.46825 | 56.59580 | 18850 ft | 375 kts | 313° |
| 2026-04-20 14:36 | 24.48606 | 56.57505 | 18341 ft | 373 kts | 312° |
| 2026-04-20 14:36 | 24.50382 | 56.55427 | 17791 ft | 372 kts | 312° |
| 2026-04-20 14:36 | 24.52139 | 56.53368 | 17272 ft | 368 kts | 312° |
| 2026-04-20 14:37 | 24.53878 | 56.51332 | 16764 ft | 364 kts | 313° |
| 2026-04-20 14:37 | 24.55600 | 56.49314 | 16272 ft | 360 kts | 313° |
| 2026-04-20 14:37 | 24.57301 | 56.47322 | 15779 ft | 356 kts | 313° |
| 2026-04-20 14:37 | 24.58988 | 56.45344 | 15295 ft | 352 kts | 313° |
| 2026-04-20 14:38 | 24.60586 | 56.43472 | 14830 ft | 349 kts | 313° |
| 2026-04-20 14:38 | 24.62238 | 56.41534 | 14367 ft | 346 kts | 313° |
| 2026-04-20 14:38 | 24.63871 | 56.39619 | 13922 ft | 343 kts | 313° |
| 2026-04-20 14:38 | 24.65506 | 56.37700 | 13442 ft | 344 kts | 313° |
| 2026-04-20 14:39 | 24.67127 | 56.35797 | 12973 ft | 339 kts | 313° |
| 2026-04-20 14:39 | 24.68728 | 56.33917 | 12504 ft | 334 kts | 313° |
| 2026-04-20 14:39 | 24.70315 | 56.32072 | 12056 ft | 330 kts | 316° |
| 2026-04-20 14:39 | 24.72111 | 56.30543 | 11629 ft | 325 kts | 329° |
| 2026-04-20 14:40 | 24.74127 | 56.29516 | 11179 ft | 322 kts | 341° |
| 2026-04-20 14:40 | 24.76280 | 56.28888 | 10748 ft | 320 kts | 346° |
| 2026-04-20 14:40 | 24.78428 | 56.28269 | 10337 ft | 317 kts | 345° |
| 2026-04-20 14:40 | 24.80511 | 56.27645 | 10203 ft | 304 kts | 345° |
| 2026-04-20 14:41 | 24.82505 | 56.27042 | 10102 ft | 291 kts | 345° |
| 2026-04-20 14:41 | 24.84442 | 56.26457 | 9894 ft | 288 kts | 345° |
| 2026-04-20 14:41 | 24.86353 | 56.25850 | 9723 ft | 284 kts | 339° |
| 2026-04-20 14:41 | 24.88017 | 56.24683 | 9600 ft | 287 kts | 316° |
| 2026-04-20 14:42 | 24.89147 | 56.22902 | 9352 ft | 289 kts | 299° |
| 2026-04-20 14:42 | 24.90090 | 56.20954 | 9066 ft | 286 kts | 300° |
| 2026-04-20 14:42 | 24.91052 | 56.19059 | 8778 ft | 281 kts | 301° |
| 2026-04-20 14:42 | 24.92008 | 56.17203 | 8501 ft | 277 kts | 301° |
| 2026-04-20 14:43 | 24.92956 | 56.15371 | 8233 ft | 273 kts | 301° |
| 2026-04-20 14:43 | 24.93882 | 56.13578 | 7973 ft | 269 kts | 300° |
| 2026-04-20 14:43 | 24.94801 | 56.11794 | 7702 ft | 266 kts | 300° |
| 2026-04-20 14:43 | 24.95707 | 56.10033 | 7418 ft | 263 kts | 300° |
| 2026-04-20 14:44 | 24.96601 | 56.08292 | 7162 ft | 259 kts | 300° |
| 2026-04-20 14:44 | 24.97429 | 56.06563 | 6905 ft | 257 kts | 293° |
| 2026-04-20 14:44 | 24.98004 | 56.04695 | 6642 ft | 257 kts | 287° |
| 2026-04-20 14:44 | 24.98544 | 56.02810 | 6387 ft | 262 kts | 288° |
| 2026-04-20 14:45 | 24.99129 | 56.00841 | 6148 ft | 276 kts | 288° |
| 2026-04-20 14:45 | 24.99731 | 55.98825 | 6165 ft | 277 kts | 288° |
| 2026-04-20 14:45 | 25.00332 | 55.96817 | 6393 ft | 273 kts | 288° |
| 2026-04-20 14:45 | 25.00915 | 55.94864 | 6623 ft | 262 kts | 288° |
| 2026-04-20 14:46 | 25.01474 | 55.92991 | 6810 ft | 257 kts | 288° |
| 2026-04-20 14:46 | 25.02034 | 55.91115 | 6869 ft | 259 kts | 289° |
| 2026-04-20 14:46 | 25.02597 | 55.89228 | 6831 ft | 258 kts | 289° |
| 2026-04-20 14:46 | 25.03150 | 55.87371 | 6723 ft | 259 kts | 289° |
| 2026-04-20 14:47 | 25.03707 | 55.85499 | 6482 ft | 257 kts | 289° |
| 2026-04-20 14:47 | 25.04262 | 55.83634 | 6165 ft | 258 kts | 288° |
| 2026-04-20 14:47 | 25.04820 | 55.81751 | 5869 ft | 257 kts | 288° |
| 2026-04-20 14:48 | 25.05925 | 55.78023 | 5283 ft | 255 kts | 289° |
| 2026-04-20 14:48 | 25.06474 | 55.76174 | 4995 ft | 254 kts | 289° |
| 2026-04-20 14:48 | 25.07023 | 55.74323 | 4713 ft | 253 kts | 289° |
| 2026-04-20 14:48 | 25.07569 | 55.72483 | 4423 ft | 252 kts | 289° |
| 2026-04-20 14:49 | 25.08110 | 55.70654 | 4154 ft | 250 kts | 289° |
| 2026-04-20 14:49 | 25.08650 | 55.68832 | 3885 ft | 250 kts | 288° |
| 2026-04-20 14:49 | 25.09179 | 55.67039 | 3638 ft | 248 kts | 289° |
| 2026-04-20 14:49 | 25.09693 | 55.65306 | 3562 ft | 234 kts | 290° |
| 2026-04-20 14:50 | 25.10239 | 55.63820 | 3455 ft | 224 kts | 296° |
| 2026-04-20 14:50 | 25.10954 | 55.62353 | 3385 ft | 209 kts | 301° |
| 2026-04-20 14:50 | 25.11653 | 55.61063 | 3120 ft | 186 kts | 302° |
| 2026-04-20 14:50 | 25.12321 | 55.59856 | 2487 ft | 184 kts | 302° |
| 2026-04-20 14:51 | 25.12968 | 55.58669 | 2002 ft | 176 kts | 301° |
| 2026-04-20 14:51 | 25.13619 | 55.57512 | 1881 ft | 181 kts | 302° |
| 2026-04-20 14:51 | 25.14285 | 55.56308 | 1853 ft | 185 kts | 301° |
| 2026-04-20 14:51 | 25.14948 | 55.55100 | 1865 ft | 187 kts | 302° |
| 2026-04-20 14:52 | 25.15631 | 55.53875 | 1862 ft | 188 kts | 302° |
| 2026-04-20 14:52 | 25.16268 | 55.52720 | 1854 ft | 166 kts | 302° |
| 2026-04-20 14:52 | 25.16837 | 55.51690 | 1838 ft | 148 kts | 301° |
| 2026-04-20 14:52 | 25.17370 | 55.50728 | 1860 ft | 148 kts | 302° |
| 2026-04-20 14:53 | 25.17898 | 55.49776 | 1861 ft | 144 kts | 301° |
| 2026-04-20 14:53 | 25.18425 | 55.48819 | 1862 ft | 145 kts | 302° |
| 2026-04-20 14:53 | 25.18956 | 55.47868 | 1769 ft | 148 kts | 302° |
| 2026-04-20 14:53 | 25.19484 | 55.46906 | 1580 ft | 146 kts | 301° |
| 2026-04-20 14:54 | 25.20007 | 55.45961 | 1390 ft | 144 kts | 302° |
| 2026-04-20 14:54 | 25.20534 | 55.45017 | 1211 ft | 142 kts | 301° |
| 2026-04-20 14:54 | 25.21032 | 55.44097 | 1021 ft | 142 kts | 301° |
| 2026-04-20 14:54 | 25.21555 | 55.43167 | 831 ft | 141 kts | 301° |
| 2026-04-20 14:55 | 25.22069 | 55.42242 | 664 ft | 143 kts | 301° |
| 2026-04-20 14:55 | 25.22140 | 55.42111 | 643 ft | 143 kts | 301° |
| 2026-04-20 14:55 | 25.22588 | 55.41286 | 470 ft | 141 kts | 301° |
| 2026-04-20 14:56 | 25.23105 | 55.40363 | 301 ft | 143 kts | 302° |
| 2026-04-20 14:56 | 25.23610 | 55.39433 | 107 ft | 142 kts | 298° |
| 2026-04-20 14:56 | 25.24090 | 55.38576 | 58 ft | 119 kts | 304° |
| 2026-04-20 14:56 | 25.24573 | 55.37696 | 56 ft | 140 kts | 302° |
| 2026-04-20 14:57 | 25.25157 | 55.36697 | 335 ft | 141 kts | 303° |
| 2026-04-20 14:57 | 25.25649 | 55.35856 | 235 ft | 154 kts | 301° |
| 2026-04-20 14:57 | 25.26266 | 55.34689 | 768 ft | 176 kts | 301° |
| 2026-04-20 14:57 | 25.26832 | 55.33570 | 2146 ft | 163 kts | 300° |
| 2026-04-20 14:58 | 25.27348 | 55.32482 | 3359 ft | 157 kts | 298° |
| 2026-04-20 14:58 | 25.27805 | 55.31360 | 4331 ft | 172 kts | 290° |
| 2026-04-20 14:58 | 25.28150 | 55.29888 | 4504 ft | 230 kts | 287° |
| 2026-04-20 14:58 | 25.28719 | 55.28033 | 4551 ft | 276 kts | 294° |
| 2026-04-20 14:59 | 25.29499 | 55.25981 | 4518 ft | 299 kts | 294° |
| 2026-04-20 14:59 | 25.30302 | 55.23856 | 4474 ft | 305 kts | 294° |
| 2026-04-20 14:59 | 25.30912 | 55.21630 | 4422 ft | 302 kts | 280° |
| 2026-04-20 14:59 | 25.31137 | 55.19349 | 4371 ft | 294 kts | 277° |
| 2026-04-20 15:00 | 25.31388 | 55.17165 | 4259 ft | 280 kts | 281° |
| 2026-04-20 15:00 | 25.31750 | 55.15108 | 4148 ft | 267 kts | 284° |
| 2026-04-20 15:00 | 25.32188 | 55.13161 | 4068 ft | 256 kts | 287° |
| 2026-04-20 15:00 | 25.32657 | 55.11306 | 3982 ft | 245 kts | 288° |
| 2026-04-20 15:01 | 25.33128 | 55.09528 | 3909 ft | 236 kts | 288° |
| 2026-04-20 15:01 | 25.33564 | 55.07842 | 3827 ft | 227 kts | 287° |
| 2026-04-20 15:01 | 25.33940 | 55.06183 | 3764 ft | 218 kts | 285° |
| 2026-04-20 15:01 | 25.34289 | 55.04570 | 3622 ft | 215 kts | 285° |
| 2026-04-20 15:02 | 25.34638 | 55.02968 | 3399 ft | 214 kts | 286° |
| 2026-04-20 15:02 | 25.34908 | 55.01351 | 3162 ft | 216 kts | 270° |
| 2026-04-20 15:02 | 25.34469 | 54.99767 | 2926 ft | 220 kts | 236° |
| 2026-04-20 15:02 | 25.33290 | 54.98712 | 2859 ft | 223 kts | 201° |
| 2026-04-20 15:03 | 25.31764 | 54.98541 | 2865 ft | 223 kts | 167° |
| 2026-04-20 15:03 | 25.30408 | 54.99311 | 2865 ft | 221 kts | 132° |
| 2026-04-20 15:03 | 25.29619 | 55.00712 | 2862 ft | 218 kts | 108° |
| 2026-04-20 15:03 | 25.29171 | 55.02312 | 2862 ft | 218 kts | 102° |
| 2026-04-20 15:04 | 25.28783 | 55.03931 | 2863 ft | 218 kts | 103° |
| 2026-04-20 15:04 | 25.28362 | 55.05541 | 2861 ft | 217 kts | 104° |
| 2026-04-20 15:04 | 25.27902 | 55.07138 | 2868 ft | 219 kts | 106° |
| 2026-04-20 15:04 | 25.27418 | 55.08727 | 2866 ft | 218 kts | 106° |
| 2026-04-20 15:05 | 25.26925 | 55.10313 | 2865 ft | 218 kts | 107° |
| 2026-04-20 15:05 | 25.26430 | 55.11896 | 2866 ft | 219 kts | 107° |
| 2026-04-20 15:05 | 25.25933 | 55.13482 | 2860 ft | 218 kts | 107° |
| 2026-04-20 15:05 | 25.25443 | 55.15046 | 2859 ft | 217 kts | 107° |
| 2026-04-20 15:06 | 25.24949 | 55.16625 | 2864 ft | 218 kts | 107° |
| 2026-04-20 15:06 | 25.24287 | 55.18128 | 2867 ft | 219 kts | 122° |
| 2026-04-20 15:06 | 25.23431 | 55.19525 | 2861 ft | 219 kts | 122° |
| 2026-04-20 15:06 | 25.22581 | 55.20922 | 2862 ft | 219 kts | 122° |
| 2026-04-20 15:07 | 25.21732 | 55.22323 | 2866 ft | 220 kts | 122° |
| 2026-04-20 15:07 | 25.20880 | 55.23725 | 2862 ft | 219 kts | 122° |
| 2026-04-20 15:07 | 25.20031 | 55.25118 | 2865 ft | 219 kts | 122° |
| 2026-04-20 15:07 | 25.19187 | 55.26516 | 2861 ft | 219 kts | 122° |
| 2026-04-20 15:08 | 25.18342 | 55.27915 | 2864 ft | 219 kts | 122° |
| 2026-04-20 15:08 | 25.17497 | 55.29314 | 2861 ft | 219 kts | 122° |
| 2026-04-20 15:08 | 25.16667 | 55.30697 | 2860 ft | 219 kts | 122° |
| 2026-04-20 15:08 | 25.15830 | 55.32095 | 2861 ft | 218 kts | 122° |
| 2026-04-20 15:09 | 25.14987 | 55.33498 | 2798 ft | 219 kts | 122° |
| 2026-04-20 15:09 | 25.14153 | 55.34886 | 2627 ft | 218 kts | 122° |
| 2026-04-20 15:09 | 25.13317 | 55.36286 | 2399 ft | 218 kts | 122° |
| 2026-04-20 15:09 | 25.12491 | 55.37684 | 2189 ft | 217 kts | 122° |
| 2026-04-20 15:10 | 25.11670 | 55.39079 | 1977 ft | 217 kts | 122° |
| 2026-04-20 15:10 | 25.11099 | 55.40585 | 1831 ft | 211 kts | 94° |
| 2026-04-20 15:10 | 25.11054 | 55.42213 | 1861 ft | 213 kts | 89° |
| 2026-04-20 15:10 | 25.11036 | 55.43808 | 1855 ft | 202 kts | 90° |
| 2026-04-20 15:11 | 25.11000 | 55.45215 | 1865 ft | 170 kts | 90° |
| 2026-04-20 15:11 | 25.10956 | 55.46466 | 1863 ft | 160 kts | 91° |
| 2026-04-20 15:11 | 25.10909 | 55.47663 | 1861 ft | 149 kts | 91° |
| 2026-04-20 15:11 | 25.10858 | 55.48879 | 1880 ft | 174 kts | 91° |
| 2026-04-20 15:12 | 25.10805 | 55.50185 | 1858 ft | 163 kts | 91° |
| 2026-04-20 15:12 | 25.10751 | 55.51400 | 1867 ft | 156 kts | 91° |
| 2026-04-20 15:12 | 25.10698 | 55.52581 | 1861 ft | 152 kts | 91° |
| 2026-04-20 15:12 | 25.10647 | 55.53745 | 1863 ft | 152 kts | 91° |
| 2026-04-20 15:13 | 25.10598 | 55.54894 | 1870 ft | 151 kts | 91° |
| 2026-04-20 15:13 | 25.10547 | 55.56056 | 1868 ft | 152 kts | 91° |
| 2026-04-20 15:13 | 25.10495 | 55.57221 | 1863 ft | 152 kts | 91° |
| 2026-04-20 15:13 | 25.10489 | 55.58376 | 1860 ft | 151 kts | 77° |
| 2026-04-20 15:14 | 25.11055 | 55.59296 | 1869 ft | 147 kts | 27° |
| 2026-04-20 15:14 | 25.12025 | 55.59311 | 1874 ft | 143 kts | 334° |
| 2026-04-20 15:14 | 25.12810 | 55.58641 | 1869 ft | 143 kts | 313° |
| 2026-04-20 15:14 | 25.13427 | 55.57773 | 1871 ft | 144 kts | 304° |
| 2026-04-20 15:15 | 25.13969 | 55.56857 | 1872 ft | 145 kts | 302° |
| 2026-04-20 15:15 | 25.14498 | 55.55917 | 1862 ft | 144 kts | 301° |
| 2026-04-20 15:15 | 25.15020 | 55.54971 | 1871 ft | 145 kts | 302° |
| 2026-04-20 15:15 | 25.15555 | 55.54019 | 1866 ft | 147 kts | 301° |
| 2026-04-20 15:16 | 25.16081 | 55.53065 | 1868 ft | 145 kts | 301° |
| 2026-04-20 15:16 | 25.16611 | 55.52108 | 1868 ft | 146 kts | 301° |
| 2026-04-20 15:16 | 25.17134 | 55.51157 | 1865 ft | 144 kts | 301° |
| 2026-04-20 15:16 | 25.17664 | 55.50201 | 1863 ft | 146 kts | 302° |
| 2026-04-20 15:17 | 25.18191 | 55.49251 | 1865 ft | 145 kts | 301° |
| 2026-04-20 15:17 | 25.18711 | 55.48309 | 1833 ft | 145 kts | 301° |
| 2026-04-20 15:17 | 25.19243 | 55.47353 | 1664 ft | 147 kts | 302° |
| 2026-04-20 15:17 | 25.19765 | 55.46399 | 1466 ft | 145 kts | 301° |
| 2026-04-20 15:18 | 25.20291 | 55.45451 | 1288 ft | 144 kts | 302° |
| 2026-04-20 15:18 | 25.20810 | 55.44520 | 1106 ft | 141 kts | 300° |
| 2026-04-20 15:18 | 25.21316 | 55.43589 | 922 ft | 142 kts | 301° |
| 2026-04-20 15:18 | 25.21830 | 55.42672 | 749 ft | 142 kts | 301° |
| 2026-04-20 15:19 | 25.22346 | 55.41738 | 576 ft | 142 kts | 300° |
| 2026-04-20 15:19 | 25.22856 | 55.40810 | 384 ft | 141 kts | 301° |
| 2026-04-20 15:19 | 25.23365 | 55.39886 | 226 ft | 142 kts | 300° |
| 2026-04-20 15:19 | 25.23876 | 55.38960 | 66 ft | 134 kts | 301° |
| 2026-04-20 15:20 | 25.24296 | 55.38213 | 51 ft | 117 kts | 302° |
| 2026-04-20 15:20 | 25.24547 | 55.37763 | 44 ft | 21 kts | 301° |
| 2026-04-20 15:20 | 25.24623 | 55.37627 | 42 ft | 21 kts | 301° |
| 2026-04-20 15:20 | 25.24730 | 55.37434 | 38 ft | 30 kts | 301° |
| 2026-04-20 15:21 | 25.24873 | 55.37175 | 37 ft | 25 kts | 301° |
| 2026-04-20 15:21 | 25.24945 | 55.37043 | 36 ft | 19 kts | 301° |
| 2026-04-20 15:21 | 25.24984 | 55.36916 | 34 ft | 17 kts | 278° |
| 2026-04-20 15:21 | 25.25002 | 55.36779 | 29 ft | 19 kts | 278° |
| 2026-04-20 15:22 | 25.25017 | 55.36634 | 27 ft | 18 kts | 272° |
| 2026-04-20 15:22 | 25.25024 | 55.36501 | 28 ft | 16 kts | 279° |
| 2026-04-20 15:22 | 25.25049 | 55.36384 | 27 ft | 15 kts | 292° |
| 2026-04-20 15:22 | 25.25101 | 55.36281 | 26 ft | 15 kts | 301° |
| 2026-04-20 15:23 | 25.25152 | 55.36184 | 29 ft | 15 kts | 300° |
| 2026-04-20 15:23 | 25.25206 | 55.36084 | 25 ft | 15 kts | 303° |
| 2026-04-20 15:23 | 25.25263 | 55.35988 | 25 ft | 15 kts | 302° |
| 2026-04-20 15:23 | 25.25319 | 55.35889 | 20 ft | 15 kts | 302° |
| 2026-04-20 15:24 | 25.25374 | 55.35791 | 19 ft | 15 kts | 302° |
| 2026-04-20 15:24 | 25.25428 | 55.35694 | 17 ft | 15 kts | 302° |